CheckWX is a tool to help pilots better visualize weather data.  It is not intended as a substitute for an official pre-flight weather briefing.

03:03:59 UTC

KCFD METAR
Coulter Field Airport
Bryan, Texas, USA
Current

29 mins ago

KCFD 170235Z AUTO 16006KT 10SM CLR 18/17 A2994 RMK AO2 T01800173
Observed
Feb-17 @ 02:35 UTC
Wind
  • 160° at 6 KTS
Visibility
10 SM
Flight Rules
VFR
Cloud Levels
  • Clear skies
Temperature
18°C / 64°F
Dewpoint
17°C / 63°F
Humidity
94%
Altimeter
29.94" Hg
Pressure
1013.92 hPa
Previous

49 mins ago

KCFD 170215Z AUTO 17005KT 10SM CLR 18/17 A2994 RMK AO2 T01840171
Observed
Feb-17 @ 02:15 UTC
Wind
  • 170° at 5 KTS
Visibility
10 SM
Flight Rules
VFR
Cloud Levels
  • Clear skies
Temperature
18°C / 64°F
Dewpoint
17°C / 63°F
Humidity
94%
Altimeter
29.94" Hg
Pressure
1013.92 hPa
Previous

1 hour ago

KCFD 170155Z AUTO 17005KT 10SM CLR 19/17 A2994 RMK AO2 T01860170
Observed
Feb-17 @ 01:55 UTC
Wind
  • 170° at 5 KTS
Visibility
10 SM
Flight Rules
VFR
Cloud Levels
  • Clear skies
Temperature
19°C / 66°F
Dewpoint
17°C / 63°F
Humidity
88%
Altimeter
29.94" Hg
Pressure
1013.92 hPa